createdAt,value
2019-02-15T00:00:01.399Z,0.00
2019-02-15T00:01:01.394Z,0.00
2019-02-15T00:02:01.393Z,0.00
2019-02-15T00:03:01.592Z,0.00
2019-02-15T00:04:01.247Z,0.00
2019-02-15T00:05:01.697Z,0.00
2019-02-15T00:06:01.200Z,0.00
2019-02-15T00:07:01.196Z,0.00
2019-02-15T00:08:01.145Z,0.00
2019-02-15T00:09:01.234Z,0.00
2019-02-15T00:10:01.364Z,0.00
2019-02-15T00:11:01.062Z,0.00
2019-02-15T00:13:01.004Z,0.00
2019-02-15T00:14:01.000Z,0.00
2019-02-15T00:15:00.957Z,0.00
2019-02-15T00:16:00.944Z,0.00
2019-02-15T00:17:01.283Z,0.00
2019-02-15T00:18:00.868Z,0.00
2019-02-15T00:19:00.871Z,0.00
2019-02-15T00:20:00.827Z,0.00
2019-02-15T00:21:00.897Z,0.00
2019-02-15T00:22:00.799Z,0.00
2019-02-15T00:23:00.782Z,0.00
2019-02-15T00:24:01.018Z,0.00
2019-02-15T00:25:01.563Z,0.00
2019-02-15T00:26:00.721Z,0.00
2019-02-15T00:27:00.630Z,0.00
2019-02-15T00:28:00.595Z,0.00
2019-02-15T00:30:00.564Z,0.00
2019-02-15T00:31:00.841Z,0.00
2019-02-15T00:32:00.506Z,0.00
2019-02-15T00:33:00.463Z,0.00
2019-02-15T00:34:00.437Z,0.00
2019-02-15T00:35:00.479Z,0.00
2019-02-15T00:36:00.424Z,0.00
2019-02-15T00:37:00.367Z,0.00
2019-02-15T00:38:00.646Z,0.00
2019-02-15T00:39:00.654Z,0.00
2019-02-15T00:40:00.463Z,0.00
2019-02-15T00:41:00.247Z,0.00
2019-02-15T00:42:01.727Z,0.00
2019-02-15T00:43:00.235Z,0.00
2019-02-15T00:44:00.342Z,0.00
2019-02-15T00:45:00.594Z,0.00
2019-02-15T00:46:01.047Z,0.00
2019-02-15T00:48:00.061Z,0.00
2019-02-15T00:50:00.029Z,0.00
2019-02-15T00:50:59.977Z,0.00
2019-02-15T00:52:00.202Z,0.00
2019-02-15T00:53:00.020Z,0.00
2019-02-15T00:53:59.901Z,0.00
2019-02-15T00:54:59.895Z,0.00
2019-02-15T00:55:59.962Z,0.00
2019-02-15T00:58:00.110Z,0.00
2019-02-15T00:58:59.823Z,0.00
2019-02-15T00:59:59.762Z,0.00
2019-02-15T01:00:59.721Z,0.00
2019-02-15T01:01:59.922Z,0.00
2019-02-15T01:02:59.669Z,0.00
2019-02-15T01:03:59.948Z,0.00
2019-02-15T01:04:59.678Z,0.00
2019-02-15T01:05:59.582Z,0.00
2019-02-15T01:06:59.641Z,0.00
2019-02-15T01:07:59.685Z,0.00
2019-02-15T01:08:59.555Z,0.00
2019-02-15T01:09:59.790Z,0.00
2019-02-15T01:10:59.448Z,0.00
2019-02-15T01:12:59.448Z,0.00
2019-02-15T01:13:59.389Z,0.00
2019-02-15T01:14:59.328Z,0.00
2019-02-15T01:15:59.572Z,0.00
2019-02-15T01:16:59.276Z,0.00
2019-02-15T01:17:59.265Z,0.00
2019-02-15T01:18:59.235Z,0.00
2019-02-15T01:19:59.201Z,0.00
2019-02-15T01:20:59.173Z,0.00
2019-02-15T01:22:59.477Z,0.00
2019-02-15T01:23:59.104Z,0.00
2019-02-15T01:24:59.063Z,0.00
2019-02-15T01:26:59.008Z,0.00
2019-02-15T01:27:58.989Z,0.00
2019-02-15T01:28:59.202Z,0.00
2019-02-15T01:29:58.927Z,0.00
2019-02-15T01:32:58.839Z,0.00
2019-02-15T01:34:59.035Z,0.00
2019-02-15T01:35:59.062Z,0.00
2019-02-15T01:36:58.785Z,0.00
2019-02-15T01:37:58.711Z,0.00
2019-02-15T01:38:58.695Z,0.00
2019-02-15T01:39:58.650Z,0.00
2019-02-15T01:40:59.070Z,0.00
2019-02-15T01:41:58.894Z,0.00
2019-02-15T01:42:58.574Z,0.00
2019-02-15T01:44:58.512Z,0.00
2019-02-15T01:47:58.778Z,0.00
2019-02-15T01:50:01.428Z,0.00
2019-02-15T01:50:58.367Z,0.00
2019-02-15T01:51:59.298Z,0.00
2019-02-15T01:52:58.314Z,0.00
2019-02-15T01:53:58.302Z,0.00
2019-02-15T01:54:58.502Z,0.00
2019-02-15T01:55:58.212Z,0.00
2019-02-15T01:56:58.191Z,0.00
2019-02-15T01:57:58.210Z,0.00
2019-02-15T01:58:58.157Z,0.00
2019-02-15T01:59:58.097Z,0.00
2019-02-15T02:00:58.074Z,0.00
2019-02-15T02:01:58.343Z,0.00
2019-02-15T02:02:58.063Z,0.00
2019-02-15T02:03:58.002Z,0.00
2019-02-15T02:04:57.964Z,0.00
2019-02-15T02:05:57.970Z,0.00
2019-02-15T02:06:57.935Z,0.00
2019-02-15T02:07:58.030Z,0.00
2019-02-15T02:08:58.196Z,0.00
2019-02-15T02:09:57.843Z,0.00
2019-02-15T02:10:57.800Z,0.00
2019-02-15T02:11:57.819Z,0.00
2019-02-15T02:12:57.748Z,0.00
2019-02-15T02:13:57.724Z,0.00
2019-02-15T02:14:59.191Z,0.00
2019-02-15T02:15:57.669Z,0.00
2019-02-15T02:16:57.888Z,0.00
2019-02-15T02:17:57.602Z,0.00
2019-02-15T02:18:57.586Z,0.00
2019-02-15T02:20:57.819Z,0.00
2019-02-15T02:22:57.548Z,0.00
2019-02-15T02:23:57.464Z,0.00
2019-02-15T02:24:57.417Z,0.00
2019-02-15T02:25:57.387Z,0.00
2019-02-15T02:26:57.655Z,0.00
2019-02-15T02:27:57.338Z,0.00
2019-02-15T02:28:57.320Z,0.00
2019-02-15T02:29:57.278Z,0.00
2019-02-15T02:30:57.249Z,0.00
2019-02-15T02:31:57.231Z,0.00
2019-02-15T02:32:57.482Z,0.00
2019-02-15T02:34:57.137Z,0.00
2019-02-15T02:35:57.114Z,0.00
2019-02-15T02:36:57.091Z,0.00
2019-02-15T02:37:57.102Z,0.00
2019-02-15T02:38:57.279Z,0.00
2019-02-15T02:39:57.001Z,0.00
2019-02-15T02:41:56.937Z,0.00
2019-02-15T02:42:56.932Z,0.00
2019-02-15T02:43:59.695Z,0.00
2019-02-15T02:45:57.133Z,0.00
2019-02-15T02:46:56.840Z,0.00
2019-02-15T02:47:56.892Z,0.00
2019-02-15T02:49:56.722Z,0.00
2019-02-15T02:51:56.994Z,0.00
2019-02-15T02:52:56.634Z,0.00
2019-02-15T02:53:56.614Z,0.00
2019-02-15T02:54:56.584Z,0.00
2019-02-15T02:55:56.567Z,0.00
2019-02-15T02:56:56.526Z,0.00
2019-02-15T02:57:56.537Z,0.00
2019-02-15T02:58:56.740Z,0.00
2019-02-15T02:59:56.450Z,0.00
2019-02-15T03:00:56.414Z,0.00
2019-02-15T03:01:56.395Z,0.00
2019-02-15T03:02:56.358Z,0.00
2019-02-15T03:03:56.328Z,0.00
2019-02-15T03:04:56.480Z,0.00
2019-02-15T03:05:57.233Z,0.00
2019-02-15T03:06:56.348Z,0.00
2019-02-15T03:07:56.242Z,0.00
2019-02-15T03:08:56.189Z,0.00
2019-02-15T03:09:56.176Z,0.00
2019-02-15T03:10:56.138Z,0.00
2019-02-15T03:11:56.106Z,0.00
2019-02-15T03:12:56.670Z,0.00
2019-02-15T03:13:56.143Z,0.00
2019-02-15T03:14:56.081Z,0.00
2019-02-15T03:16:55.978Z,0.00
2019-02-15T03:17:55.998Z,0.00
2019-02-15T03:18:55.918Z,0.00
2019-02-15T03:19:56.186Z,0.00
2019-02-15T03:20:55.885Z,0.00
2019-02-15T03:21:55.863Z,0.00
2019-02-15T03:22:56.114Z,0.00
2019-02-15T03:23:56.155Z,0.00
2019-02-15T03:24:55.963Z,0.00
2019-02-15T03:25:55.989Z,0.00
2019-02-15T03:26:55.944Z,0.00
2019-02-15T03:27:55.683Z,0.00
2019-02-15T03:28:55.649Z,0.00
2019-02-15T03:29:55.612Z,0.00
2019-02-15T03:30:55.651Z,0.00
2019-02-15T03:31:55.560Z,0.00
2019-02-15T03:32:55.545Z,0.00
2019-02-15T03:33:55.822Z,0.00
2019-02-15T03:34:55.503Z,0.00
2019-02-15T03:35:55.458Z,0.00
2019-02-15T03:36:55.420Z,0.00
2019-02-15T03:37:55.415Z,0.00
2019-02-15T03:38:55.363Z,0.00
2019-02-15T03:39:55.662Z,0.00
2019-02-15T03:40:55.314Z,0.00
2019-02-15T03:41:55.281Z,0.00
2019-02-15T03:42:55.296Z,0.00
2019-02-15T03:43:55.366Z,0.00
2019-02-15T03:45:55.463Z,0.00
2019-02-15T03:46:55.138Z,0.00
2019-02-15T03:47:55.108Z,0.00
2019-02-15T03:52:55.273Z,0.00
2019-02-15T03:53:54.947Z,0.00
2019-02-15T03:54:54.914Z,0.00
2019-02-15T03:55:54.891Z,0.00
2019-02-15T03:56:54.897Z,0.00
2019-02-15T03:57:54.832Z,0.00
2019-02-15T03:58:54.819Z,0.00
2019-02-15T03:59:54.791Z,0.00
2019-02-15T04:00:54.856Z,0.00
2019-02-15T04:01:54.734Z,0.00
2019-02-15T04:02:54.695Z,0.00
2019-02-15T04:03:54.672Z,0.00
2019-02-15T04:04:54.945Z,0.00
2019-02-15T04:05:54.715Z,0.00
2019-02-15T04:06:54.664Z,0.00
2019-02-15T04:07:54.607Z,0.00
2019-02-15T04:08:54.554Z,0.00
2019-02-15T04:09:54.528Z,0.00
2019-02-15T04:10:54.730Z,0.00
2019-02-15T04:11:54.439Z,0.00
2019-02-15T04:12:54.422Z,0.00
2019-02-15T04:13:54.388Z,0.00
2019-02-15T04:14:54.492Z,0.00
2019-02-15T04:15:54.345Z,0.00
2019-02-15T04:16:54.306Z,0.00
2019-02-15T04:17:55.011Z,0.00
2019-02-15T04:18:54.242Z,0.00
2019-02-15T04:19:54.291Z,0.00
2019-02-15T04:20:54.201Z,0.00
2019-02-15T04:21:54.180Z,0.00
2019-02-15T04:22:54.143Z,0.00
2019-02-15T04:23:54.105Z,0.00
2019-02-15T04:24:54.580Z,0.00
2019-02-15T04:25:54.226Z,0.00
2019-02-15T04:26:54.209Z,0.00
2019-02-15T04:27:54.123Z,0.00
2019-02-15T04:28:54.064Z,0.00
2019-02-15T04:29:54.080Z,0.00
2019-02-15T04:30:54.366Z,0.00
2019-02-15T04:31:54.385Z,0.00
2019-02-15T04:32:53.885Z,0.00
2019-02-15T04:33:53.865Z,0.00
2019-02-15T04:34:53.933Z,0.00
2019-02-15T04:35:53.836Z,0.00
2019-02-15T04:36:53.780Z,0.00
2019-02-15T04:37:53.869Z,0.00
2019-02-15T04:38:54.215Z,0.00
2019-02-15T04:40:53.626Z,0.00
2019-02-15T04:41:53.654Z,0.00
2019-02-15T04:42:53.718Z,0.00
2019-02-15T04:43:53.769Z,0.00
2019-02-15T04:44:53.718Z,0.00
2019-02-15T04:45:54.005Z,0.00
2019-02-15T04:46:53.641Z,0.00
2019-02-15T04:47:53.612Z,0.00
2019-02-15T04:49:54.917Z,0.00
2019-02-15T04:51:53.655Z,0.00
2019-02-15T04:52:53.298Z,0.00
2019-02-15T04:53:53.304Z,0.00
2019-02-15T04:54:53.355Z,0.00
2019-02-15T04:55:53.213Z,0.00
2019-02-15T04:56:53.185Z,0.00
2019-02-15T04:57:53.181Z,0.00
2019-02-15T04:58:53.289Z,0.00
2019-02-15T04:59:53.266Z,0.00
2019-02-15T05:00:53.312Z,0.00
2019-02-15T05:01:53.044Z,0.00
2019-02-15T05:02:53.016Z,0.00
2019-02-15T05:03:53.289Z,0.00
2019-02-15T05:04:52.964Z,0.00
2019-02-15T05:05:52.931Z,0.00
2019-02-15T05:06:52.898Z,0.00
2019-02-15T05:07:52.881Z,0.00
2019-02-15T05:08:52.845Z,0.00
2019-02-15T05:09:53.114Z,0.00
2019-02-15T05:10:52.797Z,0.00
2019-02-15T05:11:52.780Z,0.00
2019-02-15T05:12:52.832Z,0.00
2019-02-15T05:13:52.758Z,0.00
2019-02-15T05:14:53.543Z,0.00
2019-02-15T05:15:52.957Z,0.00
2019-02-15T05:16:52.624Z,0.00
2019-02-15T05:17:52.592Z,0.00
2019-02-15T05:18:52.573Z,0.00
2019-02-15T05:19:52.544Z,0.00
2019-02-15T05:20:52.665Z,0.00
2019-02-15T05:21:52.867Z,0.00
2019-02-15T05:22:53.138Z,0.00
2019-02-15T05:23:52.696Z,0.00
2019-02-15T05:25:53.036Z,0.00
2019-02-15T05:26:52.407Z,0.00
2019-02-15T05:27:52.611Z,0.00
2019-02-15T05:28:52.301Z,0.00
2019-02-15T05:29:52.275Z,0.00
2019-02-15T05:30:52.292Z,0.00
2019-02-15T05:31:52.261Z,0.00
2019-02-15T05:32:52.192Z,0.00
2019-02-15T05:33:52.146Z,0.00
2019-02-15T05:34:52.411Z,0.00
2019-02-15T05:35:52.098Z,0.00
2019-02-15T05:36:52.100Z,0.00
2019-02-15T05:37:52.025Z,0.00
2019-02-15T05:38:52.012Z,0.00
2019-02-15T05:39:51.983Z,0.00
2019-02-15T05:40:52.278Z,0.00
2019-02-15T05:41:51.923Z,0.00
2019-02-15T05:42:51.917Z,0.00
2019-02-15T05:43:51.858Z,0.00
2019-02-15T05:44:51.921Z,0.00
2019-02-15T05:45:51.819Z,0.00
2019-02-15T05:47:52.053Z,0.00
2019-02-15T05:48:51.729Z,0.00
2019-02-15T05:50:53.344Z,0.00
2019-02-15T05:51:52.426Z,0.00
2019-02-15T05:52:54.186Z,0.00
2019-02-15T05:53:52.116Z,0.00
2019-02-15T05:54:51.834Z,0.00
2019-02-15T05:55:51.533Z,0.00
2019-02-15T05:56:51.509Z,0.00
2019-02-15T05:57:53.366Z,0.00
2019-02-15T06:03:52.500Z,0.00
2019-02-15T06:04:51.275Z,0.00
2019-02-15T06:05:51.287Z,4.00
2019-02-15T06:06:51.210Z,4.00
2019-02-15T06:07:51.179Z,0.00
2019-02-15T06:08:51.257Z,4.00
2019-02-15T06:09:51.135Z,4.00
2019-02-15T06:10:51.346Z,8.00
2019-02-15T06:11:51.277Z,4.00
2019-02-15T06:12:51.204Z,8.00
2019-02-15T06:13:51.024Z,8.00
2019-02-15T06:14:51.013Z,12.00
2019-02-15T06:15:51.039Z,12.00
2019-02-15T06:16:52.332Z,16.00
2019-02-15T06:17:50.980Z,16.00
2019-02-15T06:19:50.893Z,24.00
2019-02-15T06:20:50.831Z,28.00
2019-02-15T06:21:50.797Z,36.00
2019-02-15T06:22:51.085Z,40.00
2019-02-15T06:23:50.843Z,44.00
2019-02-15T06:24:50.831Z,52.00
2019-02-15T06:25:50.686Z,60.00
2019-02-15T06:26:50.696Z,68.00
2019-02-15T06:27:50.635Z,76.00
2019-02-15T06:28:50.904Z,88.00
2019-02-15T06:29:50.571Z,100.00
2019-02-15T06:30:50.534Z,116.00
2019-02-15T06:31:51.976Z,128.00
2019-02-15T06:32:50.585Z,140.00
2019-02-15T06:33:50.457Z,152.00
2019-02-15T06:34:50.712Z,172.00
2019-02-15T06:35:50.390Z,188.00
2019-02-15T06:36:50.360Z,204.00
2019-02-15T06:37:50.331Z,228.00
2019-02-15T06:38:50.299Z,248.00
2019-02-15T06:39:50.271Z,264.00
2019-02-15T06:40:50.554Z,284.00
2019-02-15T06:41:50.753Z,304.00
2019-02-15T06:42:50.195Z,332.00
2019-02-15T06:43:50.167Z,352.00
2019-02-15T06:44:50.181Z,376.00
2019-02-15T06:45:50.144Z,400.00
2019-02-15T06:46:50.403Z,420.00
2019-02-15T06:47:50.051Z,448.00
2019-02-15T06:49:50.609Z,496.00
2019-02-15T06:50:50.117Z,520.00
2019-02-15T06:51:49.938Z,548.00
2019-02-15T06:52:50.270Z,572.00
2019-02-15T06:53:50.282Z,596.00
2019-02-15T06:54:49.930Z,624.00
2019-02-15T06:55:49.840Z,652.00
2019-02-15T06:56:49.871Z,676.00
2019-02-15T06:57:49.769Z,700.00
2019-02-15T06:58:50.686Z,724.00
2019-02-15T06:59:49.772Z,748.00
2019-02-15T07:00:49.726Z,776.00
2019-02-15T07:01:49.826Z,800.00
2019-02-15T07:02:50.311Z,828.00
2019-02-15T07:03:49.655Z,848.00
2019-02-15T07:04:50.022Z,872.00
2019-02-15T07:05:49.785Z,900.00
2019-02-15T07:06:49.672Z,920.00
2019-02-15T07:07:49.487Z,944.00
2019-02-15T07:08:49.527Z,968.00
2019-02-15T07:09:49.486Z,988.00
2019-02-15T07:10:49.882Z,1012.00
2019-02-15T07:11:49.369Z,1032.00
2019-02-15T07:13:49.313Z,1072.00
2019-02-15T07:14:49.386Z,1096.00
2019-02-15T07:15:49.765Z,1116.00
2019-02-15T07:16:49.684Z,1140.00
2019-02-15T07:17:49.444Z,1160.00
2019-02-15T07:18:49.491Z,1180.00
2019-02-15T07:19:49.156Z,1196.00
2019-02-15T07:20:49.117Z,1212.00
2019-02-15T07:21:49.091Z,1232.00
2019-02-15T07:22:49.378Z,1252.00
2019-02-15T07:23:49.055Z,1276.00
2019-02-15T07:24:49.023Z,1292.00
2019-02-15T07:25:48.986Z,1312.00
2019-02-15T07:26:48.953Z,1328.00
2019-02-15T07:27:48.935Z,1348.00
2019-02-15T07:28:49.196Z,1372.00
2019-02-15T07:29:48.889Z,1388.00
2019-02-15T07:30:48.846Z,1400.00
2019-02-15T07:31:48.829Z,1412.00
2019-02-15T07:32:49.119Z,1428.00
2019-02-15T07:33:48.910Z,1448.00
2019-02-15T07:34:48.829Z,1464.00
2019-02-15T07:35:49.025Z,1484.00
2019-02-15T07:36:48.677Z,1508.00
2019-02-15T07:37:48.649Z,1528.00
2019-02-15T07:38:48.653Z,1544.00
2019-02-15T07:39:48.592Z,1568.00
2019-02-15T07:40:48.567Z,1584.00
2019-02-15T07:41:48.856Z,1600.00
2019-02-15T07:42:48.523Z,1628.00
2019-02-15T07:43:48.488Z,1656.00
2019-02-15T07:44:48.465Z,1672.00
2019-02-15T07:45:48.424Z,1692.00
2019-02-15T07:46:48.400Z,1720.00
2019-02-15T07:47:49.144Z,1744.00
2019-02-15T07:48:48.360Z,1768.00
2019-02-15T07:49:48.329Z,1796.00
2019-02-15T07:50:49.092Z,1820.00
2019-02-15T07:51:48.284Z,1844.00
2019-02-15T07:52:48.259Z,1864.00
2019-02-15T07:53:48.529Z,1888.00
2019-02-15T07:54:48.184Z,1908.00
2019-02-15T07:55:48.181Z,1920.00
2019-02-15T07:56:48.149Z,1940.00
2019-02-15T07:57:48.104Z,1956.00
2019-02-15T07:58:48.104Z,1980.00
2019-02-15T07:59:48.358Z,1992.00
2019-02-15T08:00:48.117Z,2012.00
2019-02-15T08:01:48.072Z,2028.00
2019-02-15T08:02:48.065Z,2048.00
2019-02-15T08:03:48.068Z,2072.00
2019-02-15T08:04:48.027Z,2084.00
2019-02-15T08:05:47.904Z,2100.00
2019-02-15T08:06:48.192Z,2124.00
2019-02-15T08:07:48.064Z,2144.00
2019-02-15T08:08:47.927Z,2164.00
2019-02-15T08:09:47.810Z,2168.00
2019-02-15T08:10:48.107Z,2164.00
2019-02-15T08:11:48.076Z,2180.00
2019-02-15T08:12:48.060Z,2220.00
2019-02-15T08:13:47.718Z,2252.00
2019-02-15T08:14:47.747Z,2284.00
2019-02-15T08:16:47.690Z,2332.00
2019-02-15T08:17:47.770Z,2352.00
2019-02-15T08:18:47.899Z,2372.00
2019-02-15T08:19:47.576Z,2396.00
2019-02-15T08:20:47.563Z,2416.00
2019-02-15T08:21:47.528Z,2432.00
2019-02-15T08:22:47.496Z,2456.00
2019-02-15T08:23:47.490Z,2472.00
2019-02-15T08:24:47.720Z,2492.00
2019-02-15T08:25:47.430Z,2512.00
2019-02-15T08:26:47.409Z,2532.00
2019-02-15T08:27:47.387Z,2552.00
2019-02-15T08:28:47.360Z,2576.00
2019-02-15T08:29:47.327Z,2592.00
2019-02-15T08:30:47.561Z,2612.00
2019-02-15T08:31:47.951Z,2632.00
2019-02-15T08:32:47.281Z,2660.00
2019-02-15T08:33:47.351Z,2684.00
2019-02-15T08:34:47.221Z,2708.00
2019-02-15T08:35:47.224Z,2736.00
2019-02-15T08:36:47.522Z,2752.00
2019-02-15T08:37:47.169Z,2776.00
2019-02-15T08:38:47.238Z,2800.00
2019-02-15T08:39:47.117Z,2824.00
2019-02-15T08:40:47.108Z,2856.00
2019-02-15T08:42:00.260Z,2880.00
2019-02-15T08:42:47.384Z,2908.00
2019-02-15T08:43:47.099Z,2936.00
2019-02-15T08:44:47.027Z,2960.00
2019-02-15T08:45:47.074Z,2984.00
2019-02-15T08:46:46.978Z,3012.00
2019-02-15T08:47:46.961Z,3052.00
2019-02-15T08:48:47.483Z,3072.00
2019-02-15T08:51:46.868Z,3132.00
2019-02-15T08:53:46.843Z,3220.00
2019-02-15T08:56:46.785Z,3300.00
2019-02-15T08:57:46.862Z,3336.00
2019-02-15T08:58:46.732Z,3364.00
2019-02-15T08:59:46.716Z,3392.00
2019-02-15T09:00:46.691Z,3428.00
2019-02-15T09:01:47.016Z,3464.00
2019-02-15T09:02:46.648Z,3500.00
2019-02-15T09:03:46.645Z,3540.00
2019-02-15T09:04:46.653Z,3584.00
2019-02-15T09:05:46.681Z,3620.00
2019-02-15T09:06:46.652Z,3660.00
2019-02-15T09:07:46.862Z,3696.00
2019-02-15T09:08:46.630Z,3728.00
2019-02-15T09:09:46.572Z,3760.00
2019-02-15T09:10:46.491Z,3788.00
2019-02-15T09:11:46.480Z,3808.00
2019-02-15T09:12:46.463Z,3832.00
2019-02-15T09:13:46.975Z,3868.00
2019-02-15T09:14:46.425Z,3896.00
2019-02-15T09:15:46.409Z,3920.00
2019-02-15T09:16:46.400Z,3956.00
2019-02-15T09:17:46.373Z,3996.00
2019-02-15T09:18:46.364Z,4032.00
2019-02-15T09:19:46.632Z,4080.00
2019-02-15T09:20:46.634Z,4128.00
2019-02-15T09:21:46.310Z,4176.00
2019-02-15T09:22:46.293Z,4220.00
2019-02-15T09:23:46.277Z,4268.00
2019-02-15T09:24:46.243Z,4296.00
2019-02-15T09:25:46.565Z,4340.00
2019-02-15T09:26:46.284Z,4376.00
2019-02-15T09:27:46.233Z,4416.00
2019-02-15T09:28:46.186Z,4464.00
2019-02-15T09:30:46.144Z,4584.00
2019-02-15T09:31:46.446Z,4648.00
2019-02-15T09:32:46.418Z,4728.00
2019-02-15T09:33:46.179Z,4788.00
2019-02-15T09:34:46.087Z,4836.00
2019-02-15T09:35:46.082Z,4872.00
2019-02-15T09:36:46.615Z,4928.00
2019-02-15T09:37:46.471Z,4976.00
2019-02-15T09:38:46.257Z,5028.00
2019-02-15T09:39:46.126Z,5072.00
2019-02-15T09:40:45.993Z,5116.00
2019-02-15T09:41:45.966Z,5144.00
2019-02-15T09:42:45.950Z,5196.00
2019-02-15T09:44:45.913Z,5300.00
2019-02-15T09:45:45.913Z,5352.00
2019-02-15T09:46:45.891Z,5396.00
2019-02-15T09:47:45.928Z,5436.00
2019-02-15T09:48:45.870Z,5484.00
2019-02-15T09:49:46.803Z,5532.00
2019-02-15T09:50:45.842Z,5592.00
2019-02-15T09:51:45.818Z,5644.00
2019-02-15T09:52:45.826Z,5700.00
2019-02-15T09:53:45.798Z,5764.00
2019-02-15T09:54:45.772Z,5804.00
2019-02-15T09:56:46.076Z,5884.00
2019-02-15T09:57:45.728Z,5944.00
2019-02-15T09:58:45.711Z,6008.00
2019-02-15T09:59:45.736Z,6076.00
2019-02-15T10:00:45.718Z,6136.00
2019-02-15T10:01:45.743Z,6204.00
2019-02-15T10:02:45.951Z,6236.00
2019-02-15T10:03:45.680Z,6288.00
2019-02-15T10:04:45.629Z,6316.00
2019-02-15T10:05:45.685Z,6356.00
2019-02-15T10:06:45.611Z,6408.00
2019-02-15T10:07:45.685Z,6460.00
2019-02-15T10:08:45.579Z,6520.00
2019-02-15T10:09:45.867Z,6572.00
2019-02-15T10:10:45.541Z,6624.00
2019-02-15T10:11:45.589Z,6660.00
2019-02-15T10:12:45.553Z,6676.00
2019-02-15T10:13:45.501Z,6624.00
2019-02-15T10:15:45.777Z,6568.00
2019-02-15T10:16:45.465Z,6632.00
2019-02-15T10:17:45.488Z,6736.00
2019-02-15T10:18:45.463Z,6828.00
2019-02-15T10:19:45.449Z,6924.00
2019-02-15T10:20:45.428Z,7200.00
2019-02-15T10:21:45.697Z,7572.00
2019-02-15T10:22:45.395Z,7820.00
2019-02-15T10:23:45.398Z,8032.00
2019-02-15T10:24:45.401Z,8208.00
2019-02-15T10:25:45.714Z,8480.00
2019-02-15T10:26:45.352Z,8912.00
2019-02-15T10:28:45.609Z,10004.00
2019-02-15T10:29:45.325Z,10764.00
2019-02-15T10:30:45.278Z,11524.00
2019-02-15T10:31:45.721Z,12156.00
2019-02-15T10:32:45.253Z,12908.00
2019-02-15T10:33:45.266Z,13612.00
2019-02-15T10:34:45.598Z,14336.00
2019-02-15T10:35:45.263Z,15808.00
2019-02-15T10:36:45.218Z,17088.00
2019-02-15T10:37:45.226Z,18784.00
2019-02-15T10:38:45.231Z,20320.00
2019-02-15T10:41:45.399Z,23680.00
2019-02-15T10:42:45.174Z,22208.00
2019-02-15T10:43:45.125Z,20512.00
2019-02-15T10:44:45.220Z,18432.00
2019-02-15T10:45:45.114Z,15776.00
2019-02-15T10:46:45.220Z,13244.00
2019-02-15T10:50:45.338Z,10112.00
2019-02-15T10:51:45.051Z,10228.00
2019-02-15T10:52:45.036Z,10300.00
2019-02-15T10:53:45.093Z,10436.00
2019-02-15T10:54:45.011Z,10552.00
2019-02-15T10:57:45.401Z,10828.00
2019-02-15T10:59:44.966Z,10980.00
2019-02-15T11:00:44.959Z,11112.00
2019-02-15T11:01:44.962Z,11328.00
2019-02-15T11:02:45.260Z,11596.00
2019-02-15T11:03:45.253Z,11892.00
2019-02-15T11:04:44.944Z,12144.00
2019-02-15T11:05:44.907Z,12256.00
2019-02-15T11:06:45.454Z,12312.00
2019-02-15T11:07:44.947Z,12092.00
2019-02-15T11:09:45.170Z,11720.00
2019-02-15T11:10:44.883Z,11792.00
2019-02-15T11:11:44.862Z,11804.00
2019-02-15T11:12:44.867Z,11624.00
2019-02-15T11:13:44.827Z,11416.00
2019-02-15T11:14:44.828Z,11264.00
2019-02-15T11:15:45.151Z,10856.00
2019-02-15T11:16:47.333Z,10280.00
2019-02-15T11:17:44.812Z,10432.00
2019-02-15T11:18:44.787Z,11088.00
2019-02-15T11:19:44.884Z,11504.00
2019-02-15T11:20:44.768Z,11676.00
2019-02-15T11:21:45.100Z,11636.00
2019-02-15T11:23:44.755Z,11540.00
2019-02-15T11:24:44.731Z,11592.00
2019-02-15T11:25:44.726Z,11660.00
2019-02-15T11:26:44.715Z,11760.00
2019-02-15T11:27:45.004Z,11688.00
2019-02-15T11:28:44.694Z,11564.00
2019-02-15T11:29:44.703Z,11404.00
2019-02-15T11:30:44.791Z,11404.00
2019-02-15T11:31:44.704Z,11404.00
2019-02-15T11:32:44.789Z,11316.00
2019-02-15T11:33:45.007Z,11332.00
2019-02-15T11:34:44.694Z,11340.00
2019-02-15T11:35:44.645Z,11300.00
2019-02-15T11:36:44.620Z,11344.00
2019-02-15T11:37:44.642Z,11344.00
2019-02-15T11:38:44.731Z,11316.00
2019-02-15T11:40:44.602Z,10940.00
2019-02-15T11:41:44.578Z,10808.00
2019-02-15T11:42:44.576Z,10664.00
2019-02-15T11:43:44.569Z,10528.00
2019-02-15T11:44:44.556Z,10476.00
2019-02-15T11:45:44.882Z,10348.00
2019-02-15T11:46:44.531Z,10240.00
2019-02-15T11:47:44.538Z,10104.00
2019-02-15T11:48:44.540Z,10060.00
2019-02-15T11:49:44.511Z,9972.00
2019-02-15T11:50:44.527Z,9940.00
2019-02-15T11:51:44.808Z,9984.00
2019-02-15T11:52:44.841Z,10060.00
2019-02-15T11:53:44.484Z,10216.00
2019-02-15T11:54:44.485Z,10440.00
2019-02-15T11:55:44.469Z,13344.00
2019-02-15T11:57:44.936Z,18816.00
2019-02-15T11:58:44.525Z,18176.00
2019-02-15T11:59:44.435Z,18112.00
2019-02-15T12:00:44.609Z,18464.00
2019-02-15T12:01:44.423Z,19168.00
2019-02-15T12:02:44.417Z,19744.00
2019-02-15T12:03:44.781Z,20032.00
2019-02-15T12:04:44.391Z,20384.00
2019-02-15T12:05:44.427Z,20480.00
2019-02-15T12:07:44.414Z,20736.00
2019-02-15T12:08:44.358Z,20512.00
2019-02-15T12:09:44.688Z,20608.00
2019-02-15T12:10:44.361Z,20608.00
2019-02-15T12:11:44.348Z,20000.00
2019-02-15T12:12:44.349Z,19936.00
2019-02-15T12:13:44.324Z,20064.00
2019-02-15T12:14:44.338Z,19712.00
2019-02-15T12:15:47.398Z,18752.00
2019-02-15T12:16:44.326Z,18912.00
2019-02-15T12:17:44.342Z,19680.00
2019-02-15T12:18:44.279Z,20128.00
2019-02-15T12:19:44.360Z,20032.00
2019-02-15T12:20:44.540Z,19808.00
2019-02-15T12:21:44.276Z,20000.00
2019-02-15T12:22:44.266Z,20256.00
2019-02-15T12:24:44.557Z,20576.00
2019-02-15T12:25:44.242Z,20576.00
2019-02-15T12:26:45.663Z,20768.00
2019-02-15T12:27:44.225Z,20352.00
2019-02-15T12:28:44.205Z,19872.00
2019-02-15T12:29:44.240Z,19840.00
2019-02-15T12:31:45.325Z,19392.00
2019-02-15T12:32:45.505Z,19392.00
2019-02-15T12:33:45.172Z,19424.00
2019-02-15T12:34:44.429Z,19456.00
2019-02-15T12:35:44.170Z,19616.00
2019-02-15T12:36:44.142Z,19712.00
2019-02-15T12:37:44.140Z,19488.00
2019-02-15T12:38:44.446Z,19488.00
2019-02-15T12:39:44.308Z,19488.00
2019-02-15T12:40:44.114Z,19616.00
2019-02-15T12:41:44.099Z,19552.00
2019-02-15T12:42:44.355Z,19776.00
2019-02-15T12:43:44.106Z,19616.00
2019-02-15T12:44:44.410Z,19456.00
2019-02-15T12:45:44.192Z,19232.00
2019-02-15T12:46:44.149Z,18912.00
2019-02-15T12:47:44.054Z,18336.00
2019-02-15T12:48:47.080Z,18176.00
2019-02-15T12:49:44.044Z,17888.00
2019-02-15T12:50:44.353Z,17664.00
2019-02-15T12:51:44.048Z,17312.00
2019-02-15T12:52:44.041Z,17152.00
2019-02-15T12:53:44.019Z,16832.00
2019-02-15T12:54:44.098Z,16288.00
2019-02-15T12:55:45.058Z,16000.00
2019-02-15T12:56:44.782Z,15840.00
2019-02-15T12:57:43.976Z,15904.00
2019-02-15T12:58:43.971Z,15456.00
2019-02-15T12:59:43.957Z,15456.00
2019-02-15T13:00:43.954Z,15296.00
2019-02-15T13:01:43.956Z,15072.00
2019-02-15T13:02:44.363Z,14944.00
2019-02-15T13:03:43.986Z,14752.00
2019-02-15T13:04:43.926Z,14272.00
2019-02-15T13:05:43.923Z,13868.00
2019-02-15T13:06:44.052Z,13632.00
2019-02-15T13:07:43.918Z,13348.00
2019-02-15T13:08:44.314Z,12812.00
2019-02-15T13:09:43.904Z,12608.00
2019-02-15T13:10:43.914Z,12472.00
2019-02-15T13:11:43.854Z,12288.00
2019-02-15T13:13:43.902Z,11832.00
2019-02-15T13:14:44.143Z,11640.00
2019-02-15T13:15:44.227Z,11452.00
2019-02-15T13:17:43.984Z,11036.00
2019-02-15T13:18:44.301Z,10796.00
2019-02-15T13:19:43.801Z,10604.00
2019-02-15T13:20:44.086Z,10392.00
2019-02-15T13:21:43.938Z,10048.00
2019-02-15T13:22:43.820Z,9904.00
2019-02-15T13:23:43.775Z,9880.00
2019-02-15T13:26:44.560Z,9984.00
2019-02-15T13:27:43.802Z,10188.00
2019-02-15T13:28:43.939Z,10332.00
2019-02-15T13:29:43.785Z,10464.00
2019-02-15T13:30:43.714Z,10620.00
2019-02-15T13:31:43.799Z,10704.00
2019-02-15T13:32:44.012Z,10600.00
2019-02-15T13:33:43.691Z,10492.00
2019-02-15T13:34:43.676Z,10236.00
2019-02-15T13:35:43.696Z,10028.00
2019-02-15T13:37:43.702Z,9660.00
2019-02-15T13:38:43.948Z,9536.00
2019-02-15T13:39:43.641Z,9416.00
2019-02-15T13:40:43.641Z,9340.00
2019-02-15T13:41:43.628Z,9272.00
2019-02-15T13:42:43.621Z,9200.00
2019-02-15T13:43:43.621Z,9092.00
2019-02-15T13:44:43.604Z,8980.00
2019-02-15T13:45:44.001Z,8872.00